sensor_id;sensor_type;location;lat;lon;timestamp;pressure;altitude;pressure_sealevel;temperature;humidity
69306;BME280;56427;51.580;4.656;2023-06-22T00:00:49;101927.03;;;17.64;100.00
69306;BME280;56427;51.580;4.656;2023-06-22T00:03:16;101909.28;;;17.58;100.00
69306;BME280;56427;51.580;4.656;2023-06-22T00:05:42;101919.16;;;17.64;100.00
69306;BME280;56427;51.580;4.656;2023-06-22T00:08:07;101921.59;;;17.76;100.00
69306;BME280;56427;51.580;4.656;2023-06-22T00:10:33;101910.63;;;17.80;100.00
69306;BME280;56427;51.580;4.656;2023-06-22T00:12:58;101910.41;;;17.74;100.00
69306;BME280;56427;51.580;4.656;2023-06-22T00:15:23;101904.47;;;17.54;100.00
69306;BME280;56427;51.580;4.656;2023-06-22T00:17:49;101912.28;;;17.63;100.00
69306;BME280;56427;51.580;4.656;2023-06-22T00:20:15;101905.41;;;17.53;100.00
69306;BME280;56427;51.580;4.656;2023-06-22T00:22:42;101916.13;;;17.41;100.00
69306;BME280;56427;51.580;4.656;2023-06-22T00:25:08;101906.94;;;17.27;100.00
69306;BME280;56427;51.580;4.656;2023-06-22T00:27:35;101900.75;;;17.46;100.00
69306;BME280;56427;51.580;4.656;2023-06-22T00:30:00;101912.91;;;17.47;100.00
69306;BME280;56427;51.580;4.656;2023-06-22T00:32:27;101915.19;;;17.60;100.00
69306;BME280;56427;51.580;4.656;2023-06-22T00:34:52;101901.78;;;17.63;100.00
69306;BME280;56427;51.580;4.656;2023-06-22T00:37:18;101886.19;;;17.62;100.00
69306;BME280;56427;51.580;4.656;2023-06-22T00:39:43;101904.13;;;17.66;100.00
69306;BME280;56427;51.580;4.656;2023-06-22T00:42:09;101901.84;;;17.54;100.00
69306;BME280;56427;51.580;4.656;2023-06-22T00:44:35;101909.66;;;17.36;100.00
69306;BME280;56427;51.580;4.656;2023-06-22T00:47:01;101907.13;;;17.44;100.00
69306;BME280;56427;51.580;4.656;2023-06-22T00:49:27;101913.16;;;17.54;100.00
69306;BME280;56427;51.580;4.656;2023-06-22T00:51:53;101907.75;;;17.56;100.00
69306;BME280;56427;51.580;4.656;2023-06-22T00:54:19;101886.88;;;17.36;100.00
69306;BME280;56427;51.580;4.656;2023-06-22T00:56:58;101883.47;;;17.26;100.00
69306;BME280;56427;51.580;4.656;2023-06-22T00:59:24;101892.56;;;17.32;100.00
69306;BME280;56427;51.580;4.656;2023-06-22T01:01:51;101899.50;;;17.23;100.00
69306;BME280;56427;51.580;4.656;2023-06-22T01:04:16;101906.22;;;17.07;100.00
69306;BME280;56427;51.580;4.656;2023-06-22T01:06:54;101890.38;;;16.99;100.00
69306;BME280;56427;51.580;4.656;2023-06-22T01:09:27;101900.88;;;17.27;100.00
69306;BME280;56427;51.580;4.656;2023-06-22T01:12:00;101894.78;;;17.26;100.00
69306;BME280;56427;51.580;4.656;2023-06-22T01:14:36;101895.72;;;17.35;100.00
69306;BME280;56427;51.580;4.656;2023-06-22T01:17:05;101893.97;;;17.26;100.00
69306;BME280;56427;51.580;4.656;2023-06-22T01:22:05;101889.53;;;17.26;100.00
69306;BME280;56427;51.580;4.656;2023-06-22T01:27:40;101887.81;;;17.17;100.00
69306;BME280;56427;51.580;4.656;2023-06-22T01:30:13;101876.09;;;17.11;100.00
69306;BME280;56427;51.580;4.656;2023-06-22T01:32:41;101886.38;;;17.23;100.00
69306;BME280;56427;51.580;4.656;2023-06-22T01:35:09;101875.09;;;17.22;100.00
69306;BME280;56427;51.580;4.656;2023-06-22T01:37:37;101877.66;;;17.32;100.00
69306;BME280;56427;51.580;4.656;2023-06-22T01:40:04;101877.47;;;17.43;100.00
69306;BME280;56427;51.580;4.656;2023-06-22T01:42:31;101886.31;;;17.60;100.00
69306;BME280;56427;51.580;4.656;2023-06-22T01:44:57;101878.94;;;17.46;100.00
69306;BME280;56427;51.580;4.656;2023-06-22T01:47:24;101871.09;;;17.18;100.00
69306;BME280;56427;51.580;4.656;2023-06-22T01:49:50;101874.97;;;17.14;100.00
69306;BME280;56427;51.580;4.656;2023-06-22T01:52:17;101872.22;;;17.43;100.00
69306;BME280;56427;51.580;4.656;2023-06-22T01:54:43;101882.25;;;17.48;100.00
69306;BME280;56427;51.580;4.656;2023-06-22T01:57:08;101890.56;;;17.43;100.00
69306;BME280;56427;51.580;4.656;2023-06-22T01:59:42;101886.53;;;17.21;100.00
69306;BME280;56427;51.580;4.656;2023-06-22T02:02:10;101884.81;;;17.30;100.00
69306;BME280;56427;51.580;4.656;2023-06-22T02:04:59;101882.91;;;17.32;100.00
69306;BME280;56427;51.580;4.656;2023-06-22T02:07:32;101879.47;;;17.50;100.00
69306;BME280;56427;51.580;4.656;2023-06-22T02:09:59;101880.00;;;17.35;100.00
69306;BME280;56427;51.580;4.656;2023-06-22T02:12:28;101881.00;;;17.24;100.00
69306;BME280;56427;51.580;4.656;2023-06-22T02:14:54;101881.56;;;17.18;100.00
69306;BME280;56427;51.580;4.656;2023-06-22T02:17:20;101882.00;;;17.14;100.00
69306;BME280;56427;51.580;4.656;2023-06-22T02:19:46;101869.50;;;17.07;100.00
69306;BME280;56427;51.580;4.656;2023-06-22T02:22:11;101869.25;;;17.01;100.00
69306;BME280;56427;51.580;4.656;2023-06-22T02:24:38;101867.06;;;16.96;100.00
69306;BME280;56427;51.580;4.656;2023-06-22T02:27:04;101869.00;;;16.94;100.00
69306;BME280;56427;51.580;4.656;2023-06-22T02:29:32;101873.81;;;16.89;100.00
69306;BME280;56427;51.580;4.656;2023-06-22T02:31:57;101860.72;;;16.79;100.00
69306;BME280;56427;51.580;4.656;2023-06-22T02:34:23;101865.44;;;16.75;100.00
69306;BME280;56427;51.580;4.656;2023-06-22T02:36:49;101872.44;;;16.95;100.00
69306;BME280;56427;51.580;4.656;2023-06-22T02:39:24;101868.06;;;16.75;100.00
69306;BME280;56427;51.580;4.656;2023-06-22T02:41:50;101865.72;;;16.72;100.00
69306;BME280;56427;51.580;4.656;2023-06-22T02:44:16;101879.53;;;16.74;100.00
69306;BME280;56427;51.580;4.656;2023-06-22T02:46:42;101869.59;;;16.68;100.00
69306;BME280;56427;51.580;4.656;2023-06-22T02:52:29;101866.81;;;16.80;100.00
69306;BME280;56427;51.580;4.656;2023-06-22T02:54:55;101864.78;;;17.11;100.00
69306;BME280;56427;51.580;4.656;2023-06-22T02:57:20;101845.19;;;17.05;100.00
69306;BME280;56427;51.580;4.656;2023-06-22T02:59:45;101854.75;;;16.97;100.00
69306;BME280;56427;51.580;4.656;2023-06-22T03:02:11;101838.75;;;17.00;100.00
69306;BME280;56427;51.580;4.656;2023-06-22T03:04:37;101848.97;;;16.93;100.00
69306;BME280;56427;51.580;4.656;2023-06-22T03:07:02;101834.34;;;16.90;100.00
69306;BME280;56427;51.580;4.656;2023-06-22T03:09:28;101830.94;;;16.80;100.00
69306;BME280;56427;51.580;4.656;2023-06-22T03:11:54;101836.16;;;16.90;100.00
69306;BME280;56427;51.580;4.656;2023-06-22T03:14:20;101837.22;;;16.97;100.00
69306;BME280;56427;51.580;4.656;2023-06-22T03:16:45;101833.00;;;17.14;100.00
69306;BME280;56427;51.580;4.656;2023-06-22T03:19:11;101824.66;;;17.01;100.00
69306;BME280;56427;51.580;4.656;2023-06-22T03:21:37;101819.84;;;16.96;100.00
69306;BME280;56427;51.580;4.656;2023-06-22T03:24:04;101821.38;;;16.89;100.00
69306;BME280;56427;51.580;4.656;2023-06-22T03:26:30;101824.88;;;16.80;100.00
69306;BME280;56427;51.580;4.656;2023-06-22T03:28:55;101823.19;;;16.88;100.00
69306;BME280;56427;51.580;4.656;2023-06-22T03:31:21;101810.19;;;16.97;100.00
69306;BME280;56427;51.580;4.656;2023-06-22T03:33:47;101826.59;;;16.99;100.00
69306;BME280;56427;51.580;4.656;2023-06-22T03:36:14;101823.72;;;16.92;100.00
69306;BME280;56427;51.580;4.656;2023-06-22T03:38:41;101820.63;;;17.06;100.00
69306;BME280;56427;51.580;4.656;2023-06-22T03:41:06;101832.91;;;17.06;100.00
69306;BME280;56427;51.580;4.656;2023-06-22T03:43:32;101820.53;;;16.98;100.00
69306;BME280;56427;51.580;4.656;2023-06-22T03:45:58;101817.66;;;16.91;100.00
69306;BME280;56427;51.580;4.656;2023-06-22T03:48:23;101823.47;;;16.85;100.00
69306;BME280;56427;51.580;4.656;2023-06-22T03:50:48;101817.97;;;16.79;100.00
69306;BME280;56427;51.580;4.656;2023-06-22T03:53:14;101835.06;;;16.92;100.00
69306;BME280;56427;51.580;4.656;2023-06-22T03:55:48;101820.97;;;16.93;100.00
69306;BME280;56427;51.580;4.656;2023-06-22T03:58:14;101829.44;;;17.05;100.00
69306;BME280;56427;51.580;4.656;2023-06-22T04:00:39;101835.41;;;17.07;100.00
69306;BME280;56427;51.580;4.656;2023-06-22T04:03:05;101826.75;;;17.43;100.00
69306;BME280;56427;51.580;4.656;2023-06-22T04:05:35;101817.47;;;17.84;100.00
69306;BME280;56427;51.580;4.656;2023-06-22T04:08:18;101813.53;;;18.25;100.00
69306;BME280;56427;51.580;4.656;2023-06-22T04:10:43;101824.03;;;18.51;100.00
69306;BME280;56427;51.580;4.656;2023-06-22T04:13:09;101817.44;;;18.81;100.00
69306;BME280;56427;51.580;4.656;2023-06-22T04:15:34;101819.94;;;19.34;100.00
69306;BME280;56427;51.580;4.656;2023-06-22T04:18:00;101809.59;;;19.65;100.00
69306;BME280;56427;51.580;4.656;2023-06-22T04:20:25;101802.81;;;19.21;100.00
69306;BME280;56427;51.580;4.656;2023-06-22T04:22:53;101815.03;;;19.72;100.00
69306;BME280;56427;51.580;4.656;2023-06-22T04:25:18;101814.34;;;18.86;100.00
69306;BME280;56427;51.580;4.656;2023-06-22T04:27:44;101805.53;;;19.79;100.00
69306;BME280;56427;51.580;4.656;2023-06-22T04:30:10;101817.22;;;19.76;100.00
69306;BME280;56427;51.580;4.656;2023-06-22T04:32:36;101810.59;;;19.64;100.00
69306;BME280;56427;51.580;4.656;2023-06-22T04:35:04;101828.41;;;19.86;100.00
69306;BME280;56427;51.580;4.656;2023-06-22T04:37:31;101822.47;;;19.84;100.00
69306;BME280;56427;51.580;4.656;2023-06-22T04:39:57;101825.44;;;19.90;100.00
69306;BME280;56427;51.580;4.656;2023-06-22T04:42:22;101826.94;;;20.00;100.00
69306;BME280;56427;51.580;4.656;2023-06-22T04:44:47;101830.06;;;19.79;100.00
69306;BME280;56427;51.580;4.656;2023-06-22T04:47:13;101824.19;;;20.58;100.00
69306;BME280;56427;51.580;4.656;2023-06-22T04:49:38;101814.09;;;21.09;100.00
69306;BME280;56427;51.580;4.656;2023-06-22T04:52:09;101828.88;;;20.87;100.00
69306;BME280;56427;51.580;4.656;2023-06-22T04:54:36;101822.63;;;20.80;100.00
69306;BME280;56427;51.580;4.656;2023-06-22T04:57:05;101819.63;;;21.23;100.00
69306;BME280;56427;51.580;4.656;2023-06-22T04:59:35;101819.59;;;21.77;100.00
69306;BME280;56427;51.580;4.656;2023-06-22T05:02:01;101824.09;;;22.30;100.00
69306;BME280;56427;51.580;4.656;2023-06-22T05:04:30;101818.59;;;21.78;100.00
69306;BME280;56427;51.580;4.656;2023-06-22T05:07:02;101810.16;;;21.37;100.00
69306;BME280;56427;51.580;4.656;2023-06-22T05:09:28;101816.47;;;21.27;100.00
69306;BME280;56427;51.580;4.656;2023-06-22T05:11:53;101809.38;;;21.51;100.00
69306;BME280;56427;51.580;4.656;2023-06-22T05:14:19;101809.19;;;21.76;100.00
69306;BME280;56427;51.580;4.656;2023-06-22T05:16:45;101808.50;;;21.59;100.00
69306;BME280;56427;51.580;4.656;2023-06-22T05:19:11;101821.50;;;22.06;100.00
69306;BME280;56427;51.580;4.656;2023-06-22T05:21:37;101818.22;;;22.19;100.00
69306;BME280;56427;51.580;4.656;2023-06-22T05:24:03;101824.56;;;22.78;100.00
69306;BME280;56427;51.580;4.656;2023-06-22T05:26:30;101816.50;;;22.86;100.00
69306;BME280;56427;51.580;4.656;2023-06-22T05:28:57;101821.25;;;22.76;100.00
69306;BME280;56427;51.580;4.656;2023-06-22T05:31:23;101813.94;;;22.18;100.00
69306;BME280;56427;51.580;4.656;2023-06-22T05:33:50;101815.38;;;21.68;100.00
69306;BME280;56427;51.580;4.656;2023-06-22T05:36:16;101808.06;;;21.93;100.00
69306;BME280;56427;51.580;4.656;2023-06-22T05:38:42;101814.38;;;22.07;100.00
69306;BME280;56427;51.580;4.656;2023-06-22T05:41:07;101808.78;;;21.87;100.00
69306;BME280;56427;51.580;4.656;2023-06-22T05:43:33;101801.66;;;21.49;100.00
69306;BME280;56427;51.580;4.656;2023-06-22T05:46:00;101802.94;;;22.45;100.00
69306;BME280;56427;51.580;4.656;2023-06-22T05:48:26;101796.72;;;22.67;100.00
69306;BME280;56427;51.580;4.656;2023-06-22T05:50:51;101810.88;;;22.30;100.00
69306;BME280;56427;51.580;4.656;2023-06-22T05:53:17;101805.50;;;21.85;100.00
69306;BME280;56427;51.580;4.656;2023-06-22T05:55:42;101793.69;;;21.26;100.00
69306;BME280;56427;51.580;4.656;2023-06-22T05:58:08;101803.59;;;21.24;100.00
69306;BME280;56427;51.580;4.656;2023-06-22T06:00:34;101804.91;;;21.05;100.00
69306;BME280;56427;51.580;4.656;2023-06-22T06:02:59;101808.50;;;21.36;100.00
69306;BME280;56427;51.580;4.656;2023-06-22T06:05:35;101806.88;;;21.58;100.00
69306;BME280;56427;51.580;4.656;2023-06-22T06:08:03;101797.50;;;21.55;100.00
69306;BME280;56427;51.580;4.656;2023-06-22T06:10:30;101799.84;;;21.50;100.00
69306;BME280;56427;51.580;4.656;2023-06-22T06:12:55;101801.22;;;21.38;100.00
69306;BME280;56427;51.580;4.656;2023-06-22T06:15:22;101803.03;;;21.83;100.00
69306;BME280;56427;51.580;4.656;2023-06-22T06:17:51;101795.16;;;22.13;100.00
69306;BME280;56427;51.580;4.656;2023-06-22T06:20:19;101796.59;;;22.01;100.00
69306;BME280;56427;51.580;4.656;2023-06-22T06:22:45;101798.09;;;22.63;100.00
69306;BME280;56427;51.580;4.656;2023-06-22T06:25:11;101786.16;;;22.67;100.00
69306;BME280;56427;51.580;4.656;2023-06-22T06:27:42;101784.63;;;23.09;100.00
69306;BME280;56427;51.580;4.656;2023-06-22T06:30:08;101769.38;;;23.33;100.00
69306;BME280;56427;51.580;4.656;2023-06-22T06:32:33;101777.22;;;23.05;100.00
69306;BME280;56427;51.580;4.656;2023-06-22T06:34:58;101787.94;;;22.82;100.00
69306;BME280;56427;51.580;4.656;2023-06-22T06:37:24;101781.78;;;22.30;100.00
69306;BME280;56427;51.580;4.656;2023-06-22T06:39:49;101788.28;;;22.42;100.00
69306;BME280;56427;51.580;4.656;2023-06-22T06:42:14;101784.03;;;22.03;100.00
69306;BME280;56427;51.580;4.656;2023-06-22T06:44:40;101787.69;;;22.47;100.00
69306;BME280;56427;51.580;4.656;2023-06-22T06:47:05;101785.28;;;22.96;100.00
69306;BME280;56427;51.580;4.656;2023-06-22T06:49:33;101779.00;;;22.83;100.00
69306;BME280;56427;51.580;4.656;2023-06-22T06:51:58;101785.84;;;22.77;100.00
69306;BME280;56427;51.580;4.656;2023-06-22T06:54:24;101777.59;;;22.50;100.00
69306;BME280;56427;51.580;4.656;2023-06-22T06:56:49;101781.53;;;22.91;100.00
69306;BME280;56427;51.580;4.656;2023-06-22T06:59:15;101768.56;;;23.11;100.00
69306;BME280;56427;51.580;4.656;2023-06-22T07:01:41;101771.06;;;23.04;100.00
69306;BME280;56427;51.580;4.656;2023-06-22T07:04:06;101773.66;;;22.46;100.00
69306;BME280;56427;51.580;4.656;2023-06-22T07:06:32;101768.91;;;22.12;100.00
69306;BME280;56427;51.580;4.656;2023-06-22T07:08:59;101765.25;;;21.98;100.00
69306;BME280;56427;51.580;4.656;2023-06-22T07:11:25;101773.22;;;22.42;100.00
69306;BME280;56427;51.580;4.656;2023-06-22T07:13:50;101772.31;;;22.35;100.00
69306;BME280;56427;51.580;4.656;2023-06-22T07:16:15;101775.31;;;22.47;100.00
69306;BME280;56427;51.580;4.656;2023-06-22T07:18:41;101761.97;;;22.70;100.00
69306;BME280;56427;51.580;4.656;2023-06-22T07:21:06;101768.09;;;23.29;100.00
69306;BME280;56427;51.580;4.656;2023-06-22T07:23:32;101754.75;;;23.01;100.00
69306;BME280;56427;51.580;4.656;2023-06-22T07:25:57;101753.63;;;22.88;100.00
69306;BME280;56427;51.580;4.656;2023-06-22T07:28:27;101754.38;;;22.82;100.00
69306;BME280;56427;51.580;4.656;2023-06-22T07:30:52;101759.09;;;22.50;100.00
69306;BME280;56427;51.580;4.656;2023-06-22T07:33:18;101760.97;;;22.12;100.00
69306;BME280;56427;51.580;4.656;2023-06-22T07:35:43;101757.31;;;21.98;100.00
69306;BME280;56427;51.580;4.656;2023-06-22T07:38:09;101758.75;;;21.85;100.00
69306;BME280;56427;51.580;4.656;2023-06-22T07:40:36;101761.75;;;21.82;100.00
69306;BME280;56427;51.580;4.656;2023-06-22T07:43:02;101761.97;;;22.11;100.00
69306;BME280;56427;51.580;4.656;2023-06-22T07:45:28;101757.50;;;22.11;100.00
69306;BME280;56427;51.580;4.656;2023-06-22T07:47:54;101753.13;;;22.18;100.00
69306;BME280;56427;51.580;4.656;2023-06-22T07:50:19;101741.94;;;22.31;100.00
69306;BME280;56427;51.580;4.656;2023-06-22T07:52:45;101739.19;;;22.54;100.00
69306;BME280;56427;51.580;4.656;2023-06-22T07:55:11;101727.91;;;22.82;100.00
69306;BME280;56427;51.580;4.656;2023-06-22T07:57:36;101713.72;;;22.68;100.00
69306;BME280;56427;51.580;4.656;2023-06-22T08:00:05;101715.03;;;22.79;100.00
69306;BME280;56427;51.580;4.656;2023-06-22T08:02:42;101709.69;;;22.94;100.00
69306;BME280;56427;51.580;4.656;2023-06-22T08:05:11;101714.09;;;22.87;100.00
69306;BME280;56427;51.580;4.656;2023-06-22T08:07:37;101694.88;;;22.41;100.00
69306;BME280;56427;51.580;4.656;2023-06-22T08:10:03;101705.13;;;22.88;100.00
69306;BME280;56427;51.580;4.656;2023-06-22T08:12:29;101693.06;;;22.78;100.00
69306;BME280;56427;51.580;4.656;2023-06-22T08:14:54;101694.13;;;22.84;100.00
69306;BME280;56427;51.580;4.656;2023-06-22T08:17:19;101689.66;;;22.85;100.00
69306;BME280;56427;51.580;4.656;2023-06-22T08:19:45;101700.41;;;22.62;100.00
69306;BME280;56427;51.580;4.656;2023-06-22T08:22:10;101643.22;;;22.09;100.00
69306;BME280;56427;51.580;4.656;2023-06-22T08:24:35;101698.63;;;22.17;100.00
69306;BME280;56427;51.580;4.656;2023-06-22T08:27:01;101696.63;;;22.19;100.00
69306;BME280;56427;51.580;4.656;2023-06-22T08:29:26;101689.75;;;22.40;100.00
69306;BME280;56427;51.580;4.656;2023-06-22T08:31:52;101688.22;;;22.46;100.00
69306;BME280;56427;51.580;4.656;2023-06-22T08:34:17;101711.22;;;22.45;100.00
69306;BME280;56427;51.580;4.656;2023-06-22T08:36:47;101682.88;;;22.60;100.00
69306;BME280;56427;51.580;4.656;2023-06-22T08:39:19;101710.88;;;22.55;100.00
69306;BME280;56427;51.580;4.656;2023-06-22T08:41:48;101713.97;;;22.73;100.00
69306;BME280;56427;51.580;4.656;2023-06-22T08:44:13;101698.56;;;22.62;100.00
69306;BME280;56427;51.580;4.656;2023-06-22T08:46:39;101706.06;;;22.58;100.00
69306;BME280;56427;51.580;4.656;2023-06-22T08:49:06;101687.00;;;22.48;100.00
69306;BME280;56427;51.580;4.656;2023-06-22T08:51:32;101690.59;;;22.40;100.00
69306;BME280;56427;51.580;4.656;2023-06-22T08:53:57;101681.91;;;22.47;100.00
69306;BME280;56427;51.580;4.656;2023-06-22T08:56:22;101690.50;;;22.49;100.00
69306;BME280;56427;51.580;4.656;2023-06-22T08:58:48;101685.84;;;22.51;100.00
69306;BME280;56427;51.580;4.656;2023-06-22T09:01:13;101683.22;;;22.36;100.00
69306;BME280;56427;51.580;4.656;2023-06-22T09:03:40;101679.81;;;22.57;100.00
69306;BME280;56427;51.580;4.656;2023-06-22T09:06:06;101692.03;;;22.79;100.00
69306;BME280;56427;51.580;4.656;2023-06-22T09:08:31;101689.72;;;22.55;100.00
69306;BME280;56427;51.580;4.656;2023-06-22T09:10:57;101693.06;;;22.42;100.00
69306;BME280;56427;51.580;4.656;2023-06-22T09:13:22;101695.59;;;22.50;100.00
69306;BME280;56427;51.580;4.656;2023-06-22T09:15:48;101698.09;;;22.73;100.00
69306;BME280;56427;51.580;4.656;2023-06-22T09:18:13;101685.53;;;22.60;100.00
69306;BME280;56427;51.580;4.656;2023-06-22T09:20:39;101685.78;;;22.66;100.00
69306;BME280;56427;51.580;4.656;2023-06-22T09:23:04;101677.97;;;23.01;100.00
69306;BME280;56427;51.580;4.656;2023-06-22T09:25:30;101685.88;;;22.94;100.00
69306;BME280;56427;51.580;4.656;2023-06-22T09:27:56;101684.25;;;22.93;100.00
69306;BME280;56427;51.580;4.656;2023-06-22T09:30:22;101680.13;;;22.90;100.00
69306;BME280;56427;51.580;4.656;2023-06-22T09:32:47;101677.25;;;22.85;100.00
69306;BME280;56427;51.580;4.656;2023-06-22T09:35:13;101674.44;;;23.08;100.00
69306;BME280;56427;51.580;4.656;2023-06-22T09:37:39;101672.69;;;23.01;100.00
69306;BME280;56427;51.580;4.656;2023-06-22T09:40:06;101673.63;;;23.08;100.00
69306;BME280;56427;51.580;4.656;2023-06-22T09:42:34;101672.50;;;23.02;100.00
69306;BME280;56427;51.580;4.656;2023-06-22T09:45:00;101690.22;;;22.80;100.00
69306;BME280;56427;51.580;4.656;2023-06-22T09:47:27;101685.38;;;22.47;100.00
69306;BME280;56427;51.580;4.656;2023-06-22T09:49:52;101682.03;;;22.75;100.00
69306;BME280;56427;51.580;4.656;2023-06-22T09:52:19;101673.44;;;22.73;100.00
69306;BME280;56427;51.580;4.656;2023-06-22T09:54:44;101683.59;;;22.91;100.00
69306;BME280;56427;51.580;4.656;2023-06-22T09:57:10;101685.56;;;22.82;100.00
69306;BME280;56427;51.580;4.656;2023-06-22T09:59:35;101690.72;;;22.90;100.00
69306;BME280;56427;51.580;4.656;2023-06-22T10:02:00;101689.13;;;22.74;100.00
69306;BME280;56427;51.580;4.656;2023-06-22T10:04:26;101684.56;;;22.83;100.00
69306;BME280;56427;51.580;4.656;2023-06-22T10:06:51;101682.41;;;22.72;100.00
69306;BME280;56427;51.580;4.656;2023-06-22T10:09:17;101687.88;;;22.70;100.00
69306;BME280;56427;51.580;4.656;2023-06-22T10:11:42;101700.94;;;22.72;100.00
69306;BME280;56427;51.580;4.656;2023-06-22T10:14:07;101693.16;;;22.70;100.00
69306;BME280;56427;51.580;4.656;2023-06-22T10:16:33;101695.31;;;22.82;100.00
69306;BME280;56427;51.580;4.656;2023-06-22T10:19:01;101698.91;;;22.95;100.00
69306;BME280;56427;51.580;4.656;2023-06-22T10:21:26;101690.47;;;22.85;100.00
69306;BME280;56427;51.580;4.656;2023-06-22T10:23:53;101707.41;;;22.69;100.00
69306;BME280;56427;51.580;4.656;2023-06-22T10:26:19;101702.97;;;22.55;100.00
69306;BME280;56427;51.580;4.656;2023-06-22T10:28:44;101709.78;;;22.64;100.00
69306;BME280;56427;51.580;4.656;2023-06-22T10:31:09;101701.56;;;22.74;100.00
69306;BME280;56427;51.580;4.656;2023-06-22T10:33:35;101689.00;;;22.83;100.00
69306;BME280;56427;51.580;4.656;2023-06-22T10:36:00;101709.88;;;22.92;100.00
69306;BME280;56427;51.580;4.656;2023-06-22T10:38:25;101707.88;;;22.94;100.00
69306;BME280;56427;51.580;4.656;2023-06-22T10:40:51;101712.56;;;23.14;100.00
69306;BME280;56427;51.580;4.656;2023-06-22T10:43:16;101708.63;;;22.88;100.00
69306;BME280;56427;51.580;4.656;2023-06-22T10:45:42;101724.19;;;22.98;100.00
69306;BME280;56427;51.580;4.656;2023-06-22T10:48:07;101729.31;;;22.63;100.00
69306;BME280;56427;51.580;4.656;2023-06-22T10:50:32;101718.19;;;22.89;100.00
69306;BME280;56427;51.580;4.656;2023-06-22T10:52:58;101724.63;;;22.80;100.00
69306;BME280;56427;51.580;4.656;2023-06-22T10:55:23;101702.72;;;22.86;100.00
69306;BME280;56427;51.580;4.656;2023-06-22T10:57:49;101716.81;;;22.93;100.00
69306;BME280;56427;51.580;4.656;2023-06-22T11:00:15;101715.19;;;22.56;100.00
69306;BME280;56427;51.580;4.656;2023-06-22T11:02:40;101724.81;;;22.42;100.00
69306;BME280;56427;51.580;4.656;2023-06-22T11:05:06;101731.09;;;22.41;100.00
69306;BME280;56427;51.580;4.656;2023-06-22T11:07:31;101714.28;;;22.64;100.00
69306;BME280;56427;51.580;4.656;2023-06-22T11:09:58;101713.16;;;22.58;100.00
69306;BME280;56427;51.580;4.656;2023-06-22T11:12:23;101710.25;;;22.89;100.00
69306;BME280;56427;51.580;4.656;2023-06-22T11:14:48;101694.16;;;22.69;100.00
69306;BME280;56427;51.580;4.656;2023-06-22T11:17:17;101710.13;;;22.97;100.00
69306;BME280;56427;51.580;4.656;2023-06-22T11:19:42;101711.13;;;23.11;100.00
69306;BME280;56427;51.580;4.656;2023-06-22T11:22:07;101699.34;;;22.99;100.00
69306;BME280;56427;51.580;4.656;2023-06-22T11:24:34;101705.47;;;23.00;100.00
69306;BME280;56427;51.580;4.656;2023-06-22T11:27:00;101708.38;;;22.83;100.00
69306;BME280;56427;51.580;4.656;2023-06-22T11:29:25;101704.25;;;22.59;100.00
69306;BME280;56427;51.580;4.656;2023-06-22T11:31:50;101702.53;;;22.36;100.00
69306;BME280;56427;51.580;4.656;2023-06-22T11:34:16;101718.41;;;22.36;100.00
69306;BME280;56427;51.580;4.656;2023-06-22T11:36:41;101706.47;;;22.11;100.00
69306;BME280;56427;51.580;4.656;2023-06-22T11:39:08;101710.06;;;21.65;100.00
69306;BME280;56427;51.580;4.656;2023-06-22T11:41:34;101711.03;;;21.26;100.00
69306;BME280;56427;51.580;4.656;2023-06-22T11:44:00;101698.44;;;20.90;100.00
69306;BME280;56427;51.580;4.656;2023-06-22T11:46:25;101676.00;;;20.63;100.00
69306;BME280;56427;51.580;4.656;2023-06-22T11:48:51;101687.03;;;20.66;100.00
69306;BME280;56427;51.580;4.656;2023-06-22T11:51:16;101695.94;;;20.65;100.00
69306;BME280;56427;51.580;4.656;2023-06-22T11:53:41;101687.38;;;20.55;100.00
69306;BME280;56427;51.580;4.656;2023-06-22T11:56:07;101688.16;;;20.72;100.00
69306;BME280;56427;51.580;4.656;2023-06-22T11:58:32;101678.47;;;20.64;100.00
69306;BME280;56427;51.580;4.656;2023-06-22T12:00:57;101637.25;;;20.32;100.00
69306;BME280;56427;51.580;4.656;2023-06-22T12:03:23;101660.03;;;20.56;100.00
69306;BME280;56427;51.580;4.656;2023-06-22T12:05:49;101669.16;;;20.76;100.00
69306;BME280;56427;51.580;4.656;2023-06-22T12:08:16;101660.91;;;20.80;100.00
69306;BME280;56427;51.580;4.656;2023-06-22T12:10:42;101654.59;;;20.49;100.00
69306;BME280;56427;51.580;4.656;2023-06-22T12:13:07;101663.69;;;20.15;100.00
69306;BME280;56427;51.580;4.656;2023-06-22T12:15:32;101656.50;;;19.93;100.00
69306;BME280;56427;51.580;4.656;2023-06-22T12:17:58;101653.19;;;20.07;100.00
69306;BME280;56427;51.580;4.656;2023-06-22T12:20:23;101634.94;;;19.97;100.00
69306;BME280;56427;51.580;4.656;2023-06-22T12:22:49;101653.50;;;20.04;100.00
69306;BME280;56427;51.580;4.656;2023-06-22T12:25:16;101652.72;;;19.95;100.00
69306;BME280;56427;51.580;4.656;2023-06-22T12:27:41;101646.00;;;19.76;100.00
69306;BME280;56427;51.580;4.656;2023-06-22T12:30:08;101654.91;;;19.75;100.00
69306;BME280;56427;51.580;4.656;2023-06-22T12:32:33;101644.00;;;19.70;100.00
69306;BME280;56427;51.580;4.656;2023-06-22T12:34:59;101638.75;;;19.86;100.00
69306;BME280;56427;51.580;4.656;2023-06-22T12:37:24;101636.44;;;19.83;100.00
69306;BME280;56427;51.580;4.656;2023-06-22T12:39:50;101639.94;;;19.59;100.00
69306;BME280;56427;51.580;4.656;2023-06-22T12:42:16;101641.59;;;19.52;100.00
69306;BME280;56427;51.580;4.656;2023-06-22T12:44:41;101640.13;;;19.41;100.00